createdAt,value
2022-08-16T00:00:38.395Z,2.28
2022-08-16T00:03:06.486Z,2.00
2022-08-16T00:05:48.358Z,2.03
2022-08-16T00:08:35.898Z,2.42
2022-08-16T00:11:15.153Z,2.00
2022-08-16T00:13:53.757Z,2.05
2022-08-16T00:17:00.825Z,2.20
2022-08-16T00:19:22.485Z,2.20
2022-08-16T00:21:53.157Z,2.08
2022-08-16T00:24:32.141Z,2.20
2022-08-16T00:27:03.509Z,2.20
2022-08-16T00:29:31.812Z,2.20
2022-08-16T00:32:05.889Z,2.30
2022-08-16T00:34:44.781Z,2.33
2022-08-16T00:37:24.531Z,2.50
2022-08-16T00:39:57.146Z,2.38
2022-08-16T00:42:31.826Z,2.25
2022-08-16T00:45:36.464Z,2.50
2022-08-16T00:48:31.365Z,2.08
2022-08-16T00:50:58.215Z,2.00
2022-08-16T00:53:27.407Z,2.22
2022-08-16T00:56:05.488Z,2.13
2022-08-16T00:58:36.687Z,2.08
2022-08-16T01:01:08.131Z,2.42
2022-08-16T01:03:41.683Z,2.13
2022-08-16T01:06:40.003Z,2.55
2022-08-16T01:09:01.530Z,2.13
2022-08-16T01:11:31.349Z,2.22
2022-08-16T01:14:25.707Z,2.60
2022-08-16T01:16:59.125Z,2.28
2022-08-16T01:19:31.929Z,2.05
2022-08-16T01:22:48.448Z,2.40
2022-08-16T01:25:33.704Z,2.40
2022-08-16T01:28:07.449Z,2.70
2022-08-16T01:30:49.750Z,2.20
2022-08-16T01:33:20.067Z,2.35
2022-08-16T01:36:09.654Z,2.40
2022-08-16T01:38:47.049Z,2.13
2022-08-16T01:41:29.630Z,1.95
2022-08-16T01:44:00.782Z,2.45
2022-08-16T01:46:41.292Z,2.30
2022-08-16T01:49:43.494Z,2.35
2022-08-16T01:52:27.774Z,2.10
2022-08-16T01:54:59.493Z,1.90
2022-08-16T01:57:31.531Z,2.60
2022-08-16T02:00:00.219Z,2.20
2022-08-16T02:02:28.756Z,2.20
2022-08-16T02:05:00.102Z,1.98
2022-08-16T02:07:27.688Z,2.08
2022-08-16T02:09:59.582Z,2.30
2022-08-16T02:12:49.672Z,2.20
2022-08-16T02:15:24.975Z,2.05
2022-08-16T02:17:55.039Z,2.20
2022-08-16T02:20:26.243Z,2.17
2022-08-16T02:22:56.696Z,2.38
2022-08-16T02:25:24.701Z,2.08
2022-08-16T02:28:11.867Z,2.00
2022-08-16T02:30:50.479Z,2.40
2022-08-16T02:33:18.022Z,1.98
2022-08-16T02:35:49.696Z,2.30
2022-08-16T02:38:26.755Z,2.40
2022-08-16T02:40:56.617Z,2.83
2022-08-16T02:43:33.291Z,2.25
2022-08-16T02:46:01.742Z,2.30
2022-08-16T02:48:35.227Z,2.20
2022-08-16T02:51:11.817Z,2.15
2022-08-16T02:53:44.089Z,2.30
2022-08-16T02:56:17.816Z,1.95
2022-08-16T02:58:53.019Z,2.40
2022-08-16T03:01:36.776Z,2.40
2022-08-16T03:04:39.241Z,2.50
2022-08-16T03:06:56.490Z,2.20
2022-08-16T03:09:28.808Z,2.20
2022-08-16T03:12:02.329Z,2.70
2022-08-16T03:14:29.813Z,2.20
2022-08-16T03:16:59.446Z,2.15
2022-08-16T03:19:48.269Z,1.95
2022-08-16T03:22:28.913Z,2.50
2022-08-16T03:25:00.679Z,2.22
2022-08-16T03:27:30.898Z,2.22
2022-08-16T03:30:00.875Z,2.30
2022-08-16T03:32:29.140Z,2.72
2022-08-16T03:34:56.156Z,2.28
2022-08-16T03:37:24.020Z,2.40
2022-08-16T03:39:56.575Z,2.30
2022-08-16T03:42:28.923Z,1.85
2022-08-16T03:45:03.546Z,2.55
2022-08-16T03:47:34.278Z,2.40
2022-08-16T03:50:03.166Z,2.10
2022-08-16T03:52:31.366Z,2.00
2022-08-16T03:54:59.838Z,2.50
2022-08-16T03:57:31.841Z,2.10
2022-08-16T04:00:40.868Z,1.92
2022-08-16T04:03:09.080Z,2.30
2022-08-16T04:05:46.626Z,2.03
2022-08-16T04:08:23.323Z,2.33
2022-08-16T04:10:54.100Z,2.40
2022-08-16T04:13:58.998Z,2.05
2022-08-16T04:16:26.407Z,2.20
2022-08-16T04:19:02.119Z,2.10
2022-08-16T04:21:34.800Z,2.28
2022-08-16T04:24:03.357Z,2.22
2022-08-16T04:26:32.407Z,1.90
2022-08-16T04:29:15.262Z,2.22
2022-08-16T04:31:56.826Z,2.00
2022-08-16T04:34:28.448Z,1.95
2022-08-16T04:36:58.979Z,1.83
2022-08-16T04:39:45.965Z,1.63
2022-08-16T04:42:25.978Z,2.10
2022-08-16T04:44:56.106Z,1.90
2022-08-16T04:47:32.897Z,2.40
2022-08-16T04:50:05.690Z,1.85
2022-08-16T04:52:45.172Z,2.20
2022-08-16T04:55:31.936Z,2.10
2022-08-16T04:58:44.782Z,2.08
2022-08-16T05:00:55.210Z,2.15
2022-08-16T05:03:24.061Z,2.00
2022-08-16T05:06:02.299Z,2.05
2022-08-16T05:08:33.022Z,2.00
2022-08-16T05:11:08.207Z,2.20
2022-08-16T05:13:41.817Z,2.08
2022-08-16T05:16:20.313Z,2.28
2022-08-16T05:18:51.754Z,1.80
2022-08-16T05:21:20.854Z,2.05
2022-08-16T05:24:00.235Z,2.50
2022-08-16T05:26:31.391Z,2.30
2022-08-16T05:29:04.354Z,2.35
2022-08-16T05:31:31.790Z,2.40
2022-08-16T05:34:03.223Z,2.30
2022-08-16T05:36:33.884Z,2.35
2022-08-16T05:39:09.535Z,2.42
2022-08-16T05:41:45.399Z,2.40
2022-08-16T05:44:24.107Z,2.30
2022-08-16T05:47:01.278Z,2.50
2022-08-16T05:49:38.849Z,2.13
2022-08-16T05:52:13.433Z,2.83
2022-08-16T05:54:47.148Z,2.53
2022-08-16T05:57:18.446Z,2.33
2022-08-16T05:59:47.616Z,2.20
2022-08-16T06:02:18.733Z,2.10
2022-08-16T06:04:46.164Z,2.45
2022-08-16T06:07:24.837Z,2.55
2022-08-16T06:09:58.218Z,2.40
2022-08-16T06:12:29.158Z,2.33
2022-08-16T06:15:11.654Z,2.58
2022-08-16T06:17:44.475Z,2.40
2022-08-16T06:20:25.675Z,2.65
2022-08-16T06:23:11.421Z,2.50
2022-08-16T06:25:53.085Z,2.38
2022-08-16T06:28:36.164Z,2.30
2022-08-16T06:31:05.709Z,2.38
2022-08-16T06:33:40.316Z,2.72
2022-08-16T06:36:15.361Z,2.50
2022-08-16T06:38:55.673Z,2.60
2022-08-16T06:41:24.355Z,2.53
2022-08-16T06:43:55.292Z,2.70
2022-08-16T06:46:40.330Z,3.00
2022-08-16T06:49:11.839Z,2.30
2022-08-16T06:51:46.106Z,2.58
2022-08-16T06:54:16.808Z,2.88
2022-08-16T06:56:43.902Z,2.72
2022-08-16T06:59:11.368Z,2.60
2022-08-16T07:01:45.130Z,2.90
2022-08-16T07:04:31.461Z,2.47
2022-08-16T07:06:59.620Z,2.72
2022-08-16T07:09:29.650Z,2.67
2022-08-16T07:12:03.667Z,2.78
2022-08-16T07:14:33.515Z,3.20
2022-08-16T07:17:03.438Z,2.15
2022-08-16T07:20:30.256Z,2.78
2022-08-16T07:22:37.511Z,2.45
2022-08-16T07:25:12.247Z,2.85
2022-08-16T07:27:40.957Z,2.70
2022-08-16T07:30:39.420Z,2.38
2022-08-16T07:33:00.196Z,2.50
2022-08-16T07:35:27.950Z,3.05
2022-08-16T07:37:55.115Z,2.45
2022-08-16T07:40:49.070Z,2.40
2022-08-16T07:43:09.997Z,3.35
2022-08-16T07:45:38.859Z,3.03
2022-08-16T07:48:11.635Z,3.10
2022-08-16T07:50:55.640Z,2.80
2022-08-16T07:53:24.993Z,2.90
2022-08-16T07:55:57.080Z,2.60
2022-08-16T07:58:34.562Z,3.30
2022-08-16T08:01:10.538Z,2.65
2022-08-16T08:03:48.396Z,2.33
2022-08-16T08:06:19.753Z,3.20
2022-08-16T08:08:50.563Z,2.42
2022-08-16T08:11:23.782Z,3.58
2022-08-16T08:13:55.756Z,3.10
2022-08-16T08:16:30.434Z,2.33
2022-08-16T08:19:00.936Z,3.03
2022-08-16T08:21:58.337Z,2.75
2022-08-16T08:24:17.933Z,3.20
2022-08-16T08:26:50.051Z,3.30
2022-08-16T08:29:22.899Z,3.50
2022-08-16T08:31:53.028Z,3.15
2022-08-16T08:34:22.214Z,2.28
2022-08-16T08:36:54.448Z,2.90
2022-08-16T08:39:25.552Z,2.63
2022-08-16T08:41:52.696Z,2.83
2022-08-16T08:44:29.903Z,2.40
2022-08-16T08:47:09.357Z,2.97
2022-08-16T08:49:50.223Z,3.38
2022-08-16T08:52:34.497Z,3.05
2022-08-16T08:55:09.306Z,3.30
2022-08-16T08:57:44.948Z,3.25
2022-08-16T09:00:15.990Z,3.60
2022-08-16T09:02:52.206Z,2.95
2022-08-16T09:05:26.108Z,2.72
2022-08-16T09:08:06.061Z,2.60
2022-08-16T09:10:33.906Z,2.72
2022-08-16T09:13:08.035Z,3.20
2022-08-16T09:15:37.929Z,3.00
2022-08-16T09:18:24.729Z,2.90
2022-08-16T09:20:58.922Z,2.95
2022-08-16T09:23:36.638Z,3.30
2022-08-16T09:26:43.084Z,3.28
2022-08-16T09:29:17.049Z,3.70
2022-08-16T09:31:42.830Z,3.47
2022-08-16T09:34:10.754Z,3.60
2022-08-16T09:36:45.963Z,3.58
2022-08-16T09:39:15.989Z,3.92
2022-08-16T09:41:53.288Z,3.65
2022-08-16T09:45:12.659Z,4.03
2022-08-16T09:47:13.628Z,3.53
2022-08-16T09:49:41.355Z,3.38
2022-08-16T09:52:10.102Z,3.83
2022-08-16T09:54:38.676Z,3.50
2022-08-16T09:57:12.054Z,3.40
2022-08-16T09:59:42.009Z,3.15
2022-08-16T10:02:22.978Z,3.47
2022-08-16T10:04:57.444Z,3.25
2022-08-16T10:07:44.778Z,3.63
2022-08-16T10:10:19.064Z,3.60
2022-08-16T10:13:14.409Z,3.60
2022-08-16T10:15:55.740Z,3.13
2022-08-16T10:18:54.141Z,3.30
2022-08-16T10:21:10.741Z,3.05
2022-08-16T10:23:37.737Z,3.55
2022-08-16T10:27:18.287Z,3.10
2022-08-16T10:28:53.402Z,3.08
2022-08-16T10:31:44.295Z,3.60
2022-08-16T10:34:30.748Z,3.22
2022-08-16T10:36:56.876Z,3.28
2022-08-16T10:39:23.998Z,3.13
2022-08-16T10:41:51.372Z,2.58
2022-08-16T10:44:18.306Z,3.47
2022-08-16T10:46:45.643Z,3.03
2022-08-16T10:49:16.648Z,3.28
2022-08-16T10:52:01.565Z,3.08
2022-08-16T10:54:32.091Z,3.33
2022-08-16T10:57:04.312Z,3.50
2022-08-16T10:59:44.068Z,3.03
2022-08-16T11:02:59.577Z,3.20
2022-08-16T11:05:14.119Z,3.15
2022-08-16T11:07:52.124Z,3.50
2022-08-16T11:16:26.658Z,3.13
2022-08-16T11:19:04.873Z,3.03
2022-08-16T11:22:22.847Z,3.10
2022-08-16T11:24:39.553Z,2.70
2022-08-16T11:27:26.924Z,2.65
2022-08-16T11:29:57.165Z,2.83
2022-08-16T11:32:32.245Z,2.70
2022-08-16T11:35:17.230Z,2.45
2022-08-16T11:38:46.562Z,3.33
2022-08-16T11:40:52.593Z,2.75
2022-08-16T11:43:26.591Z,2.75
2022-08-16T11:45:56.818Z,2.70
2022-08-16T11:48:26.987Z,2.83
2022-08-16T11:50:55.339Z,2.88
2022-08-16T11:53:24.302Z,2.90
2022-08-16T11:55:54.572Z,3.00
2022-08-16T11:58:26.056Z,2.63
2022-08-16T12:00:57.709Z,3.20
2022-08-16T12:03:35.264Z,2.72
2022-08-16T12:06:24.937Z,2.92
2022-08-16T12:09:00.930Z,2.85
2022-08-16T12:11:31.511Z,2.78
2022-08-16T12:14:05.194Z,2.92
2022-08-16T12:16:34.206Z,2.85
2022-08-16T12:19:06.133Z,2.55
2022-08-16T12:21:35.882Z,2.90
2022-08-16T12:24:25.186Z,2.45
2022-08-16T12:26:54.565Z,2.72
2022-08-16T12:29:22.623Z,2.42
2022-08-16T12:32:00.939Z,2.70
2022-08-16T12:34:29.636Z,2.60
2022-08-16T12:36:57.991Z,2.65
2022-08-16T12:39:28.943Z,2.60
2022-08-16T12:41:57.652Z,2.60
2022-08-16T12:44:26.350Z,2.53
2022-08-16T12:47:17.456Z,2.63
2022-08-16T12:49:44.415Z,2.88
2022-08-16T12:52:33.205Z,2.88
2022-08-16T12:55:00.822Z,2.65
2022-08-16T12:57:36.792Z,2.75
2022-08-16T13:00:13.179Z,2.67
2022-08-16T13:02:54.519Z,3.00
2022-08-16T13:05:22.820Z,2.85
2022-08-16T13:07:53.239Z,2.60
2022-08-16T13:10:37.186Z,2.65
2022-08-16T13:13:09.205Z,2.80
2022-08-16T13:15:55.718Z,2.80
2022-08-16T13:18:34.563Z,2.88
2022-08-16T13:21:07.839Z,2.88
2022-08-16T13:23:43.512Z,3.45
2022-08-16T13:26:12.784Z,2.80
2022-08-16T13:28:46.252Z,2.75
2022-08-16T13:31:16.881Z,3.00
2022-08-16T13:33:45.417Z,3.33
2022-08-16T13:36:32.367Z,3.00
2022-08-16T13:39:01.575Z,2.78
2022-08-16T13:41:30.238Z,2.80
2022-08-16T13:44:04.283Z,2.38
2022-08-16T13:46:36.927Z,2.75
2022-08-16T13:49:05.037Z,2.58
2022-08-16T13:51:33.097Z,2.75
2022-08-16T13:54:03.898Z,2.60
2022-08-16T13:56:39.422Z,2.90
2022-08-16T13:59:20.530Z,2.65
2022-08-16T14:01:56.647Z,2.60
2022-08-16T14:04:33.915Z,2.70
2022-08-16T14:07:04.345Z,2.90
2022-08-16T14:09:34.381Z,2.70
2022-08-16T14:12:04.420Z,3.13
2022-08-16T14:14:37.505Z,2.78
2022-08-16T14:17:04.634Z,3.00
2022-08-16T14:19:37.313Z,2.83
2022-08-16T14:22:30.527Z,3.00
2022-08-16T14:25:00.258Z,2.95
2022-08-16T14:27:29.829Z,3.15
2022-08-16T14:29:59.082Z,3.10
2022-08-16T14:32:33.167Z,2.95
2022-08-16T14:35:12.560Z,3.10
2022-08-16T14:37:43.402Z,2.75
2022-08-16T14:40:17.449Z,3.13
2022-08-16T14:42:47.838Z,3.10
2022-08-16T14:45:22.012Z,3.15
2022-08-16T14:47:49.783Z,3.00
2022-08-16T14:50:23.723Z,2.85
2022-08-16T14:53:05.458Z,3.03
2022-08-16T14:55:36.448Z,2.92
2022-08-16T14:58:07.574Z,2.92
2022-08-16T15:00:46.208Z,3.53
2022-08-16T15:03:13.202Z,3.25
2022-08-16T15:05:42.460Z,3.20
2022-08-16T15:08:10.911Z,3.00
2022-08-16T15:10:44.886Z,3.00
2022-08-16T15:13:15.370Z,2.83
2022-08-16T15:15:43.908Z,3.08
2022-08-16T15:18:13.858Z,3.25
2022-08-16T15:20:53.040Z,3.28
2022-08-16T15:23:20.058Z,2.85
2022-08-16T15:25:47.442Z,3.08
2022-08-16T15:28:33.006Z,3.35
2022-08-16T15:31:08.077Z,2.83
2022-08-16T15:33:45.418Z,3.25
2022-08-16T15:36:21.276Z,2.70
2022-08-16T15:39:02.809Z,2.80
2022-08-16T15:41:43.513Z,2.92
2022-08-16T15:44:18.023Z,2.80
2022-08-16T15:46:56.582Z,2.83
2022-08-16T15:49:37.917Z,3.00
2022-08-16T15:52:33.913Z,2.85
2022-08-16T15:55:13.064Z,2.65
2022-08-16T15:57:51.720Z,3.17
2022-08-16T16:00:20.757Z,3.08
2022-08-16T16:02:49.490Z,2.97
2022-08-16T16:05:19.030Z,2.83
2022-08-16T16:07:56.442Z,2.95
2022-08-16T16:10:34.489Z,2.53
2022-08-16T16:13:05.355Z,3.30
2022-08-16T16:15:44.251Z,3.40
2022-08-16T16:18:12.724Z,3.03
2022-08-16T16:20:48.556Z,3.00
2022-08-16T16:23:23.520Z,2.90
2022-08-16T16:25:52.917Z,2.83
2022-08-16T16:29:05.765Z,2.92
2022-08-16T16:31:16.885Z,2.92
2022-08-16T16:33:47.941Z,2.90
2022-08-16T16:36:22.228Z,2.88
2022-08-16T16:38:53.245Z,2.78
2022-08-16T16:41:27.088Z,3.05
2022-08-16T16:43:56.357Z,2.83
2022-08-16T16:46:43.039Z,2.92
2022-08-16T16:49:13.909Z,2.88
2022-08-16T16:51:44.825Z,2.78
2022-08-16T16:54:22.473Z,2.65
2022-08-16T16:57:02.397Z,2.70
2022-08-16T16:59:29.660Z,3.05
2022-08-16T17:02:41.273Z,2.80
2022-08-16T17:04:47.521Z,2.85
2022-08-16T17:07:15.299Z,2.75
2022-08-16T17:09:45.585Z,3.10
2022-08-16T17:12:25.421Z,2.70
2022-08-16T17:15:00.901Z,2.63
2022-08-16T17:17:29.697Z,2.70
2022-08-16T17:19:56.859Z,2.70
2022-08-16T17:22:32.989Z,2.60
2022-08-16T17:25:01.091Z,2.70
2022-08-16T17:27:33.634Z,2.85
2022-08-16T17:30:26.974Z,2.95
2022-08-16T17:33:01.645Z,2.55
2022-08-16T17:35:38.895Z,3.03
2022-08-16T17:38:09.661Z,2.50
2022-08-16T17:40:49.397Z,2.83
2022-08-16T17:43:44.219Z,3.08
2022-08-16T17:46:51.579Z,2.65
2022-08-16T17:49:01.200Z,3.05
2022-08-16T17:51:28.638Z,2.60
2022-08-16T17:53:56.656Z,3.00
2022-08-16T17:56:23.791Z,2.42
2022-08-16T17:58:53.417Z,2.55
2022-08-16T18:01:26.413Z,2.28
2022-08-16T18:04:06.937Z,2.53
2022-08-16T18:06:37.950Z,2.92
2022-08-16T18:09:08.131Z,2.78
2022-08-16T18:11:42.912Z,2.78
2022-08-16T18:14:11.459Z,2.75
2022-08-16T18:16:40.848Z,2.70
2022-08-16T18:19:09.168Z,2.80
2022-08-16T18:21:54.814Z,2.67
2022-08-16T18:24:22.224Z,3.00
2022-08-16T18:26:49.151Z,2.70
2022-08-16T18:29:16.288Z,3.17
2022-08-16T18:31:43.425Z,3.05
2022-08-16T18:34:10.713Z,2.88
2022-08-16T18:36:37.705Z,3.00
2022-08-16T18:39:05.920Z,3.00
2022-08-16T18:41:36.847Z,2.95
2022-08-16T18:44:26.080Z,2.70
2022-08-16T18:46:54.016Z,2.83
2022-08-16T18:49:20.994Z,2.50
2022-08-16T18:51:48.072Z,3.00
2022-08-16T18:54:19.854Z,3.13
2022-08-16T18:56:55.874Z,3.53
2022-08-16T18:59:28.557Z,3.05
2022-08-16T19:02:00.274Z,2.78
2022-08-16T19:04:49.025Z,3.00
2022-08-16T19:07:21.901Z,3.30
2022-08-16T19:09:49.015Z,3.10
2022-08-16T19:12:16.346Z,3.10
2022-08-16T19:14:45.474Z,3.13
2022-08-16T19:17:12.586Z,3.20
2022-08-16T19:19:39.547Z,3.42
2022-08-16T19:22:06.629Z,3.38
2022-08-16T19:24:33.676Z,3.38
2022-08-16T19:27:01.604Z,3.53
2022-08-16T19:29:29.159Z,3.35
2022-08-16T19:31:56.175Z,3.42
2022-08-16T19:34:23.059Z,3.70
2022-08-16T19:36:50.056Z,3.70
2022-08-16T19:39:17.635Z,3.70
2022-08-16T19:41:53.289Z,3.67
2022-08-16T19:44:22.825Z,3.38
2022-08-16T19:46:50.476Z,3.17
2022-08-16T19:49:17.894Z,3.53
2022-08-16T19:51:47.251Z,3.25
2022-08-16T19:54:15.059Z,3.40
2022-08-16T19:56:42.097Z,3.35
2022-08-16T19:59:19.906Z,3.20
2022-08-16T20:01:51.100Z,3.13
2022-08-16T20:04:18.604Z,3.10
2022-08-16T20:06:46.846Z,3.10
2022-08-16T20:09:14.805Z,3.17
2022-08-16T20:11:44.426Z,3.33
2022-08-16T20:14:19.382Z,3.30
2022-08-16T20:16:52.414Z,3.13
2022-08-16T20:19:20.093Z,3.10
2022-08-16T20:21:47.132Z,3.60
2022-08-16T20:24:33.015Z,3.58
2022-08-16T20:27:02.703Z,3.55
2022-08-16T20:29:29.944Z,3.50
2022-08-16T20:31:56.956Z,2.97
2022-08-16T20:34:23.942Z,3.15
2022-08-16T20:36:50.871Z,3.47
2022-08-16T20:39:17.903Z,4.05
2022-08-16T20:41:45.176Z,3.60
2022-08-16T20:44:12.999Z,3.45
2022-08-16T20:46:40.557Z,3.00
2022-08-16T20:49:10.143Z,3.22
2022-08-16T20:51:49.687Z,3.17
2022-08-16T20:54:18.613Z,3.20
2022-08-16T20:56:45.636Z,2.90
2022-08-16T20:59:12.765Z,3.00
2022-08-16T21:01:46.849Z,2.88
2022-08-16T21:04:21.638Z,3.00
2022-08-16T21:06:53.462Z,3.10
2022-08-16T21:09:32.655Z,3.00
2022-08-16T21:12:08.755Z,3.00
2022-08-16T21:14:38.682Z,3.28
2022-08-16T21:17:08.378Z,3.50
2022-08-16T21:19:36.637Z,3.40
2022-08-16T21:22:14.284Z,3.38
2022-08-16T21:24:44.248Z,3.58
2022-08-16T21:27:18.196Z,3.35
2022-08-16T21:29:46.041Z,3.38
2022-08-16T21:32:35.018Z,3.28
2022-08-16T21:35:14.476Z,3.50
2022-08-16T21:37:42.461Z,3.25
2022-08-16T21:40:30.935Z,3.28
2022-08-16T21:43:12.557Z,3.13
2022-08-16T21:45:41.828Z,3.53
2022-08-16T21:48:09.207Z,3.35
2022-08-16T21:50:38.491Z,3.38
2022-08-16T21:53:13.832Z,3.40
2022-08-16T21:55:46.374Z,2.72
2022-08-16T21:58:14.834Z,2.95
2022-08-16T22:00:42.235Z,3.65
2022-08-16T22:03:11.022Z,3.28
2022-08-16T22:05:42.370Z,3.15
2022-08-16T22:08:10.317Z,2.97
2022-08-16T22:11:04.986Z,3.20
2022-08-16T22:13:26.926Z,2.90
2022-08-16T22:15:55.207Z,3.20
2022-08-16T22:18:23.051Z,2.97
2022-08-16T22:20:51.151Z,3.30
2022-08-16T22:23:23.927Z,3.15
2022-08-16T22:25:53.806Z,3.38
2022-08-16T22:28:22.930Z,3.42
2022-08-16T22:30:51.435Z,3.20
2022-08-16T22:33:23.000Z,3.58
2022-08-16T22:35:57.845Z,3.38
2022-08-16T22:38:53.724Z,3.17
2022-08-16T22:41:14.375Z,3.38
2022-08-16T22:43:44.878Z,3.28
2022-08-16T22:46:11.856Z,3.30
2022-08-16T22:48:39.317Z,3.17
2022-08-16T22:51:10.099Z,3.58
2022-08-16T22:53:37.631Z,3.33
2022-08-16T22:56:05.282Z,3.22
2022-08-16T22:58:36.912Z,3.47
2022-08-16T23:01:07.745Z,3.60
2022-08-16T23:03:35.737Z,3.45
2022-08-16T23:06:03.403Z,3.20
2022-08-16T23:08:38.183Z,3.15
2022-08-16T23:11:10.050Z,3.33
2022-08-16T23:13:37.360Z,3.10
2022-08-16T23:16:11.346Z,2.95
2022-08-16T23:18:40.119Z,3.20
2022-08-16T23:21:11.032Z,2.97
2022-08-16T23:23:38.933Z,3.20
2022-08-16T23:26:45.406Z,3.03
2022-08-16T23:28:55.168Z,3.28
2022-08-16T23:31:22.070Z,2.83
2022-08-16T23:33:49.053Z,3.20
2022-08-16T23:36:16.095Z,3.13
2022-08-16T23:38:42.975Z,3.45
2022-08-16T23:41:12.289Z,3.03
2022-08-16T23:43:43.185Z,3.28
2022-08-16T23:46:16.215Z,2.90
2022-08-16T23:49:56.960Z,3.10
2022-08-16T23:51:31.432Z,3.17
2022-08-16T23:53:58.694Z,3.13
2022-08-16T23:56:26.001Z,3.10
2022-08-16T23:59:02.389Z,3.20
